createdAt,value
2023-05-15T00:02:31.871Z,97813.78
2023-05-15T00:05:02.163Z,97821.28
2023-05-15T00:07:30.835Z,97811.16
2023-05-15T00:10:00.537Z,97823.22
2023-05-15T00:12:40.257Z,97817.19
2023-05-15T00:15:14.280Z,97812.97
2023-05-15T00:17:46.509Z,97811.16
2023-05-15T00:20:17.390Z,97815.22
2023-05-15T00:25:31.395Z,97814.25
2023-05-15T00:28:11.305Z,97807.25
2023-05-15T00:30:43.857Z,97792.28
2023-05-15T00:36:09.381Z,97798.63
2023-05-15T00:38:39.532Z,97801.41
2023-05-15T00:41:13.580Z,97800.25
2023-05-15T00:43:49.786Z,97799.91
2023-05-15T00:46:21.437Z,97798.16
2023-05-15T00:48:59.427Z,97797.31
2023-05-15T00:51:34.367Z,97718.47
2023-05-15T00:54:08.983Z,97812.81
2023-05-15T00:56:39.737Z,97800.75
2023-05-15T00:59:13.578Z,97802.22
2023-05-15T01:01:45.553Z,97803.16
2023-05-15T01:04:16.267Z,97803.19
2023-05-15T01:06:51.720Z,97807.09
2023-05-15T01:09:28.851Z,97776.53
2023-05-15T01:12:03.721Z,97788.88
2023-05-15T01:14:38.631Z,97778.97
2023-05-15T01:17:09.479Z,97789.38
2023-05-15T01:19:40.275Z,97781.06
2023-05-15T01:25:57.523Z,97785.63
2023-05-15T01:29:09.762Z,97779.94
2023-05-15T01:31:42.319Z,97786.63
2023-05-15T01:34:14.952Z,97783.69
2023-05-15T01:37:12.198Z,97781.41
2023-05-15T01:39:46.439Z,97781.72
2023-05-15T01:42:22.508Z,97776.19
2023-05-15T01:45:00.008Z,97777.19
2023-05-15T01:47:47.604Z,97784.34
2023-05-15T01:50:21.397Z,97771.31
2023-05-15T01:53:02.876Z,97777.31
2023-05-15T01:55:32.789Z,97786.13
2023-05-15T01:58:05.798Z,97793.91
2023-05-15T02:00:38.253Z,97780.91
2023-05-15T02:03:26.508Z,97783.81
2023-05-15T02:05:57.169Z,97781.06
2023-05-15T02:08:34.144Z,97789.88
2023-05-15T02:11:05.083Z,97788.06
2023-05-15T02:13:40.504Z,97767.41
2023-05-15T02:16:11.785Z,97784.00
2023-05-15T02:18:43.895Z,97789.88
2023-05-15T02:21:14.456Z,97788.25
2023-05-15T02:23:51.821Z,97785.78
2023-05-15T02:27:00.642Z,97794.25
2023-05-15T02:29:50.392Z,97788.88
2023-05-15T02:33:19.960Z,97795.41
2023-05-15T02:36:41.819Z,97789.06
2023-05-15T02:39:14.727Z,97790.34
2023-05-15T02:42:02.573Z,97792.31
2023-05-15T02:44:32.714Z,97793.28
2023-05-15T02:49:53.657Z,97785.94
2023-05-15T02:52:25.218Z,97783.66
2023-05-15T02:55:01.408Z,97782.38
2023-05-15T02:57:41.146Z,97777.97
2023-05-15T03:00:15.781Z,97788.38
2023-05-15T03:02:47.148Z,97789.69
2023-05-15T03:05:20.110Z,97785.47
2023-05-15T03:10:38.854Z,97770.84
2023-05-15T03:15:55.824Z,97780.59
2023-05-15T03:18:27.088Z,97782.69
2023-05-15T03:21:04.668Z,97781.59
2023-05-15T03:23:37.976Z,97779.16
2023-05-15T03:26:14.434Z,97780.78
2023-05-15T03:28:48.365Z,97767.25
2023-05-15T03:31:29.696Z,97772.28
2023-05-15T03:34:01.388Z,97760.41
2023-05-15T03:39:16.810Z,97771.00
2023-05-15T03:41:49.550Z,97768.09
2023-05-15T03:47:06.864Z,97761.41
2023-05-15T03:49:40.873Z,97765.47
2023-05-15T03:52:13.243Z,97746.75
2023-05-15T03:54:51.867Z,97758.47
2023-05-15T03:57:25.336Z,97761.41
2023-05-15T03:59:56.761Z,97757.66
2023-05-15T04:02:26.909Z,97761.41
2023-05-15T04:05:06.057Z,97764.00
2023-05-15T04:07:42.353Z,97769.03
2023-05-15T04:10:16.818Z,97769.22
2023-05-15T04:12:50.874Z,97766.78
2023-05-15T04:15:30.079Z,97771.19
2023-05-15T04:18:09.933Z,97770.66
2023-05-15T04:20:45.709Z,97765.47
2023-05-15T04:23:19.496Z,97745.63
2023-05-15T04:25:54.012Z,97770.84
2023-05-15T04:28:28.660Z,97763.03
2023-05-15T04:31:05.344Z,97768.56
2023-05-15T04:33:41.116Z,97748.25
2023-05-15T04:36:18.845Z,97770.69
2023-05-15T04:38:58.963Z,97767.91
2023-05-15T04:41:30.687Z,97778.81
2023-05-15T04:46:48.067Z,97773.91
2023-05-15T04:49:19.559Z,97750.97
2023-05-15T04:52:00.171Z,97758.25
2023-05-15T04:54:30.612Z,97761.84
2023-05-15T04:57:06.891Z,97767.53
2023-05-15T04:59:37.718Z,97767.69
2023-05-15T05:02:14.099Z,97775.69
2023-05-15T05:04:57.805Z,97760.22
2023-05-15T05:07:34.572Z,97760.03
2023-05-15T05:10:04.459Z,97761.38
2023-05-15T05:12:35.657Z,97758.22
2023-05-15T05:15:09.199Z,97758.50
2023-05-15T05:17:38.229Z,97750.41
2023-05-15T05:20:13.547Z,97767.00
2023-05-15T05:22:43.303Z,97760.63
2023-05-15T05:25:28.776Z,97759.47
2023-05-15T05:28:00.753Z,97769.88
2023-05-15T05:30:36.025Z,97758.13
2023-05-15T05:33:13.980Z,97763.34
2023-05-15T05:35:43.899Z,97780.38
2023-05-15T05:41:03.207Z,97766.84
2023-05-15T05:43:34.835Z,97763.59
2023-05-15T05:46:07.120Z,97769.81
2023-05-15T05:48:41.286Z,97776.31
2023-05-15T05:51:12.080Z,97757.31
2023-05-15T05:53:42.812Z,97778.59
2023-05-15T05:56:13.823Z,97764.81
2023-05-15T05:58:42.481Z,97763.81
2023-05-15T06:01:18.287Z,97771.78
2023-05-15T06:03:58.023Z,97767.38
2023-05-15T06:06:35.173Z,97776.97
2023-05-15T06:09:27.046Z,97769.47
2023-05-15T06:12:00.845Z,97769.59
2023-05-15T06:14:47.494Z,97770.44
2023-05-15T06:17:21.096Z,97757.13
2023-05-15T06:19:55.133Z,97763.09
2023-05-15T06:22:25.955Z,97754.63
2023-05-15T06:27:41.244Z,97757.56
2023-05-15T06:30:14.716Z,97767.56
2023-05-15T06:32:46.565Z,97761.16
2023-05-15T06:35:18.571Z,97763.72
2023-05-15T06:37:59.521Z,97763.94
2023-05-15T06:40:34.628Z,97752.00
2023-05-15T06:43:08.433Z,97711.03
2023-05-15T06:45:50.591Z,97747.69
2023-05-15T06:48:21.330Z,97742.22
2023-05-15T06:50:53.915Z,97735.53
2023-05-15T06:53:24.983Z,97745.94
2023-05-15T06:55:59.928Z,97746.06
2023-05-15T06:58:37.163Z,97750.25
2023-05-15T07:01:14.068Z,97737.03
2023-05-15T07:03:45.256Z,97746.59
2023-05-15T07:06:18.618Z,97733.44
2023-05-15T07:09:02.164Z,97758.16
2023-05-15T07:11:36.952Z,97756.16
2023-05-15T07:14:06.226Z,97756.28
2023-05-15T07:16:36.530Z,97735.50
2023-05-15T07:19:07.156Z,97737.72
2023-05-15T07:21:40.489Z,97738.25
2023-05-15T07:24:14.419Z,97749.59
2023-05-15T07:26:56.984Z,97744.03
2023-05-15T07:29:38.687Z,97747.16
2023-05-15T07:32:12.803Z,97731.94
2023-05-15T07:34:43.129Z,97743.25
2023-05-15T07:37:17.124Z,97743.47
2023-05-15T07:39:58.893Z,97760.28
2023-05-15T07:42:35.309Z,97764.88
2023-05-15T07:45:04.304Z,97752.66
2023-05-15T07:47:36.261Z,97758.47
2023-05-15T07:50:10.229Z,97731.81
2023-05-15T07:52:46.846Z,97750.13
2023-05-15T07:55:15.912Z,97754.19
2023-05-15T07:57:53.402Z,97732.63
2023-05-15T08:00:23.886Z,97761.84
2023-05-15T08:03:01.267Z,97771.44
2023-05-15T08:05:32.991Z,97765.88
2023-05-15T08:08:07.057Z,97763.91
2023-05-15T08:10:36.369Z,97758.34
2023-05-15T08:13:11.846Z,97762.84
2023-05-15T08:15:48.670Z,97769.19
2023-05-15T08:18:19.398Z,97760.16
2023-05-15T08:20:50.740Z,97758.91
2023-05-15T08:23:20.931Z,97757.06
2023-05-15T08:25:51.432Z,97754.19
2023-05-15T08:28:23.575Z,97749.75
2023-05-15T08:30:56.598Z,97758.34
2023-05-15T08:33:28.194Z,97758.59
2023-05-15T08:36:00.755Z,97758.38
2023-05-15T08:38:38.580Z,97770.47
2023-05-15T08:41:47.716Z,97764.69
2023-05-15T08:44:18.753Z,97756.91
2023-05-15T08:46:54.594Z,97745.22
2023-05-15T08:50:23.988Z,97731.50
2023-05-15T08:53:15.881Z,97753.50
2023-05-15T08:55:44.459Z,97751.03
2023-05-15T08:58:13.788Z,97755.31
2023-05-15T09:00:45.545Z,97758.41
2023-05-15T09:03:25.694Z,97753.91
2023-05-15T09:06:04.633Z,97743.22
2023-05-15T09:08:37.633Z,97728.31
2023-05-15T09:11:10.358Z,97709.66
2023-05-15T09:13:53.557Z,97748.16
2023-05-15T09:16:27.565Z,97754.09
2023-05-15T09:18:57.151Z,97733.75
2023-05-15T09:21:40.058Z,97752.22
2023-05-15T09:24:20.317Z,97750.53
2023-05-15T09:27:08.794Z,97759.44
2023-05-15T09:29:46.556Z,97764.47
2023-05-15T09:32:19.313Z,97760.44
2023-05-15T09:35:02.113Z,97764.38
2023-05-15T09:37:40.112Z,97759.00
2023-05-15T09:40:17.844Z,97752.06
2023-05-15T09:42:57.731Z,97748.19
2023-05-15T09:45:33.049Z,97757.53
2023-05-15T09:48:05.886Z,97758.31
2023-05-15T09:50:38.132Z,97743.81
2023-05-15T09:53:21.391Z,97745.69
2023-05-15T09:55:53.428Z,97728.41
2023-05-15T09:58:26.580Z,97727.13
2023-05-15T10:01:10.307Z,97720.91
2023-05-15T10:03:49.958Z,97711.94
2023-05-15T10:06:20.982Z,97692.59
2023-05-15T10:09:01.147Z,97679.38
2023-05-15T10:11:42.119Z,97657.81
2023-05-15T10:14:13.760Z,97654.66
2023-05-15T10:16:56.508Z,97653.88
2023-05-15T10:19:32.075Z,97660.28
2023-05-15T10:22:05.950Z,97651.16
2023-05-15T10:24:43.636Z,97651.34
2023-05-15T10:27:14.382Z,97659.75
2023-05-15T10:29:46.484Z,97674.81
2023-05-15T10:32:17.707Z,97684.59
2023-05-15T10:34:46.397Z,97684.47
2023-05-15T10:37:18.336Z,97679.06
2023-05-15T10:39:50.774Z,97693.84
2023-05-15T10:42:19.084Z,97703.91
2023-05-15T10:44:49.631Z,97703.13
2023-05-15T10:47:21.328Z,97694.00
2023-05-15T10:52:43.584Z,97685.81
2023-05-15T10:55:26.494Z,97633.09
2023-05-15T10:57:58.799Z,97662.13
2023-05-15T11:00:35.188Z,97669.75
2023-05-15T11:03:16.721Z,97664.34
2023-05-15T11:06:19.029Z,97663.59
2023-05-15T11:08:55.014Z,97661.44
2023-05-15T11:12:06.858Z,97649.72
2023-05-15T11:14:41.701Z,97654.16
2023-05-15T11:17:15.657Z,97648.06
2023-05-15T11:20:05.622Z,97631.31
2023-05-15T11:22:46.761Z,97628.50
2023-05-15T11:25:22.389Z,97630.31
2023-05-15T11:27:58.526Z,97623.59
2023-05-15T11:30:41.284Z,97622.13
2023-05-15T11:33:18.968Z,97624.09
2023-05-15T11:36:06.079Z,97625.59
2023-05-15T11:38:45.330Z,97625.09
2023-05-15T11:41:38.350Z,97623.22
2023-05-15T11:44:08.863Z,97588.25
2023-05-15T11:46:42.517Z,97607.16
2023-05-15T11:49:16.693Z,97608.94
2023-05-15T11:51:50.341Z,97605.38
2023-05-15T11:54:33.667Z,97607.91
2023-05-15T11:57:10.034Z,97600.88
2023-05-15T11:59:49.557Z,97596.47
2023-05-15T12:02:23.221Z,97593.97
2023-05-15T12:04:57.948Z,97570.88
2023-05-15T12:07:28.698Z,97555.25
2023-05-15T12:09:59.735Z,97584.22
2023-05-15T12:12:31.929Z,97593.03
2023-05-15T12:15:21.280Z,97586.53
2023-05-15T12:17:54.652Z,97592.03
2023-05-15T12:20:22.843Z,97583.56
2023-05-15T12:22:56.291Z,97575.69
2023-05-15T12:25:42.086Z,97591.41
2023-05-15T12:28:18.849Z,97591.41
2023-05-15T12:30:49.078Z,97593.41
2023-05-15T12:33:19.888Z,97585.31
2023-05-15T12:36:08.200Z,97584.72
2023-05-15T12:38:45.387Z,97582.81
2023-05-15T12:41:23.339Z,97575.34
2023-05-15T12:43:53.959Z,97572.88
2023-05-15T12:46:25.115Z,97575.19
2023-05-15T12:48:53.766Z,97582.41
2023-05-15T12:51:37.442Z,97575.03
2023-05-15T12:54:07.752Z,97581.72
2023-05-15T12:56:41.795Z,97579.13
2023-05-15T12:59:12.739Z,97587.75
2023-05-15T13:01:56.621Z,97589.63
2023-05-15T13:04:30.771Z,97600.75
2023-05-15T13:07:04.887Z,97612.16
2023-05-15T13:09:39.148Z,97610.16
2023-05-15T13:12:15.103Z,97605.19
2023-05-15T13:14:45.626Z,97619.47
2023-05-15T13:20:08.694Z,97601.78
2023-05-15T13:22:50.322Z,97604.50
2023-05-15T13:25:36.203Z,97584.00
2023-05-15T13:28:08.191Z,97588.75
2023-05-15T13:30:42.299Z,97586.06
2023-05-15T13:33:21.312Z,97569.19
2023-05-15T13:35:51.849Z,97586.22
2023-05-15T13:38:23.241Z,97593.41
2023-05-15T13:41:00.697Z,97588.19
2023-05-15T13:43:32.570Z,97586.16
2023-05-15T13:46:18.206Z,97562.91
2023-05-15T13:48:50.979Z,97589.53
2023-05-15T13:51:25.842Z,97590.63
2023-05-15T13:53:57.192Z,97590.94
2023-05-15T13:59:19.480Z,97591.31
2023-05-15T14:01:53.965Z,97596.06
2023-05-15T14:04:31.569Z,97590.00
2023-05-15T14:07:03.159Z,97583.91
2023-05-15T14:09:33.300Z,97592.28
2023-05-15T14:12:09.988Z,97583.69
2023-05-15T14:14:53.394Z,97584.91
2023-05-15T14:17:27.209Z,97586.19
2023-05-15T14:20:01.989Z,97586.41
2023-05-15T14:22:39.151Z,97581.75
2023-05-15T14:25:31.715Z,97585.66
2023-05-15T14:28:06.623Z,97569.78
2023-05-15T14:30:40.753Z,97575.09
2023-05-15T14:33:16.725Z,97576.72
2023-05-15T14:35:51.969Z,97587.28
2023-05-15T14:38:27.307Z,97583.41
2023-05-15T14:40:59.201Z,97591.19
2023-05-15T14:43:33.089Z,97581.69
2023-05-15T14:46:04.031Z,97579.44
2023-05-15T14:48:41.426Z,97587.09
2023-05-15T14:51:14.084Z,97589.06
2023-05-15T14:53:47.411Z,97572.53
2023-05-15T14:56:18.113Z,97586.53
2023-05-15T14:58:49.880Z,97588.25
2023-05-15T15:01:25.513Z,97590.69
2023-05-15T15:04:00.187Z,97588.94
2023-05-15T15:06:32.199Z,97580.63
2023-05-15T15:09:00.021Z,97581.81
2023-05-15T15:11:33.613Z,97588.25
2023-05-15T15:14:15.173Z,97588.25
2023-05-15T15:16:49.607Z,97593.91
2023-05-15T15:19:33.030Z,97603.50
2023-05-15T15:22:06.727Z,97601.03
2023-05-15T15:24:44.245Z,97608.44
2023-05-15T15:27:15.190Z,97562.91
2023-05-15T15:29:45.706Z,97599.75
2023-05-15T15:32:26.561Z,97602.69
2023-05-15T15:35:10.167Z,97610.69
2023-05-15T15:37:44.244Z,97607.44
2023-05-15T15:40:15.856Z,97604.50
2023-05-15T15:42:45.962Z,97617.69
2023-05-15T15:48:08.763Z,97616.38
2023-05-15T15:50:37.427Z,97606.56
2023-05-15T15:53:14.243Z,97619.97
2023-05-15T15:55:47.129Z,97623.34
2023-05-15T15:58:22.458Z,97622.09
2023-05-15T16:00:54.156Z,97617.81
2023-05-15T16:03:31.957Z,97612.69
2023-05-15T16:06:00.755Z,97608.28
2023-05-15T16:08:40.402Z,97619.25
2023-05-15T16:11:08.636Z,97622.81
2023-05-15T16:13:39.648Z,97628.06
2023-05-15T16:16:13.373Z,97617.59
2023-05-15T16:18:46.198Z,97622.50
2023-05-15T16:21:15.710Z,97599.38
2023-05-15T16:23:45.718Z,97620.72
2023-05-15T16:26:19.011Z,97616.41
2023-05-15T16:28:53.070Z,97596.19
2023-05-15T16:31:21.917Z,97629.38
2023-05-15T16:33:57.692Z,97634.72
2023-05-15T16:36:39.119Z,97629.94
2023-05-15T16:39:09.603Z,97627.91
2023-05-15T16:41:37.706Z,97612.59
2023-05-15T16:44:30.336Z,97626.66
2023-05-15T16:47:04.145Z,97631.19
2023-05-15T16:49:37.575Z,97627.47
2023-05-15T16:52:08.468Z,97633.19
2023-05-15T16:54:41.928Z,97636.31
2023-05-15T16:57:24.552Z,97641.84
2023-05-15T16:59:55.624Z,97573.63
2023-05-15T17:02:28.252Z,97605.59
2023-05-15T17:05:02.270Z,97659.56
2023-05-15T17:07:31.334Z,97658.19
2023-05-15T17:10:05.876Z,97652.56
2023-05-15T17:12:33.828Z,97657.69
2023-05-15T17:15:04.594Z,97651.06
2023-05-15T17:17:36.088Z,97670.56
2023-05-15T17:20:26.441Z,97655.06
2023-05-15T17:23:00.641Z,97669.88
2023-05-15T17:25:30.236Z,97676.13
2023-05-15T17:28:08.007Z,97677.38
2023-05-15T17:30:39.319Z,97678.84
2023-05-15T17:33:10.939Z,97636.22
2023-05-15T17:35:47.259Z,97683.66
2023-05-15T17:38:17.734Z,97656.06
2023-05-15T17:40:49.581Z,97684.38
2023-05-15T17:43:31.006Z,97678.00
2023-05-15T17:46:04.835Z,97684.78
2023-05-15T17:48:41.567Z,97687.66
2023-05-15T17:51:15.259Z,97675.28
2023-05-15T17:53:45.565Z,97706.72
2023-05-15T17:56:22.373Z,97698.72
2023-05-15T17:58:52.423Z,97698.53
2023-05-15T18:01:26.359Z,97692.78
2023-05-15T18:03:57.141Z,97689.94
2023-05-15T18:06:30.346Z,97671.63
2023-05-15T18:09:05.445Z,97703.63
2023-05-15T18:11:42.011Z,97710.34
2023-05-15T18:17:25.465Z,97702.59
2023-05-15T18:20:04.543Z,97696.81
2023-05-15T18:25:21.644Z,97718.16
2023-05-15T18:27:56.322Z,97718.03
2023-05-15T18:30:27.986Z,97716.69
2023-05-15T18:33:02.061Z,97729.16
2023-05-15T18:35:39.890Z,97726.22
2023-05-15T18:38:14.133Z,97719.72
2023-05-15T18:40:42.525Z,97730.34
2023-05-15T18:43:13.138Z,97730.25
2023-05-15T18:45:50.113Z,97742.81
2023-05-15T18:48:20.938Z,97748.72
2023-05-15T18:50:54.905Z,97759.25
2023-05-15T18:53:26.548Z,97748.56
2023-05-15T18:55:56.781Z,97759.34
2023-05-15T18:58:32.398Z,97752.97
2023-05-15T19:01:14.157Z,97761.66
2023-05-15T19:03:44.947Z,97758.41
2023-05-15T19:06:22.796Z,97768.28
2023-05-15T19:08:53.955Z,97763.19
2023-05-15T19:11:27.232Z,97773.72
2023-05-15T19:13:57.871Z,97760.59
2023-05-15T19:16:32.665Z,97759.31
2023-05-15T19:19:04.298Z,97769.53
2023-05-15T19:21:49.745Z,97785.97
2023-05-15T19:24:23.631Z,97779.50
2023-05-15T19:27:01.227Z,97792.75
2023-05-15T19:29:45.739Z,97781.84
2023-05-15T19:32:22.276Z,97790.31
2023-05-15T19:34:53.537Z,97803.88
2023-05-15T19:37:24.153Z,97794.13
2023-05-15T19:39:55.459Z,97799.00
2023-05-15T19:42:26.038Z,97804.47
2023-05-15T19:47:45.432Z,97811.63
2023-05-15T19:50:18.109Z,97828.19
2023-05-15T19:52:54.572Z,97839.28
2023-05-15T19:55:40.368Z,97843.19
2023-05-15T19:58:10.874Z,97848.03
2023-05-15T20:00:41.071Z,97836.59
2023-05-15T20:03:26.478Z,97853.22
2023-05-15T20:05:59.171Z,97855.09
2023-05-15T20:08:36.214Z,97839.78
2023-05-15T20:11:10.112Z,97829.34
2023-05-15T20:13:48.074Z,97849.75
2023-05-15T20:16:19.750Z,97832.38
2023-05-15T20:18:57.122Z,97854.16
2023-05-15T20:21:30.647Z,97856.31
2023-05-15T20:24:00.798Z,97857.22
2023-05-15T20:26:32.562Z,97849.81
2023-05-15T20:29:06.961Z,97863.91
2023-05-15T20:31:40.932Z,97863.00
2023-05-15T20:34:11.223Z,97851.44
2023-05-15T20:36:46.454Z,97861.22
2023-05-15T20:39:15.288Z,97851.13
2023-05-15T20:41:51.735Z,97857.38
2023-05-15T20:44:24.628Z,97840.44
2023-05-15T20:47:02.112Z,97862.69
2023-05-15T20:49:41.190Z,97864.41
2023-05-15T20:52:21.835Z,97861.63
2023-05-15T20:54:55.819Z,97866.59
2023-05-15T20:57:34.715Z,97861.00
2023-05-15T21:00:12.853Z,97860.41
2023-05-15T21:02:43.001Z,97861.22
2023-05-15T21:05:29.390Z,97852.44
2023-05-15T21:08:09.697Z,97853.47
2023-05-15T21:10:41.626Z,97854.06
2023-05-15T21:13:16.864Z,97850.16
2023-05-15T21:15:51.302Z,97851.91
2023-05-15T21:18:22.748Z,97841.56
2023-05-15T21:20:53.388Z,97830.28
2023-05-15T21:23:26.610Z,97847.91
2023-05-15T21:28:41.389Z,97844.44
2023-05-15T21:31:15.204Z,97816.38
2023-05-15T21:33:48.874Z,97828.94
2023-05-15T21:36:19.066Z,97834.38
2023-05-15T21:38:56.721Z,97844.00
2023-05-15T21:41:27.457Z,97843.28
2023-05-15T21:44:06.416Z,97846.41
2023-05-15T21:46:38.467Z,97836.00
2023-05-15T21:49:08.332Z,97819.59
2023-05-15T21:54:30.333Z,97833.22
2023-05-15T21:56:58.966Z,97834.97
2023-05-15T21:59:37.014Z,97829.28
2023-05-15T22:02:08.138Z,97822.44
2023-05-15T22:04:40.061Z,97832.41
2023-05-15T22:07:11.251Z,97832.25
2023-05-15T22:09:48.916Z,97834.28
2023-05-15T22:12:32.542Z,97841.31
2023-05-15T22:15:04.296Z,97827.81
2023-05-15T22:17:39.258Z,97835.94
2023-05-15T22:20:13.571Z,97821.00
2023-05-15T22:22:48.633Z,97826.53
2023-05-15T22:25:27.951Z,97813.38
2023-05-15T22:27:58.457Z,97822.53
2023-05-15T22:30:28.856Z,97814.53
2023-05-15T22:33:00.708Z,97819.88
2023-05-15T22:35:32.273Z,97823.25
2023-05-15T22:38:00.896Z,97818.00
2023-05-15T22:40:31.815Z,97826.25
2023-05-15T22:43:09.856Z,97824.28
2023-05-15T22:45:40.467Z,97825.44
2023-05-15T22:48:11.501Z,97806.44
2023-05-15T22:50:51.474Z,97834.94
2023-05-15T22:53:22.329Z,97833.41
2023-05-15T22:55:59.210Z,97808.28
2023-05-15T22:58:27.670Z,97834.94
2023-05-15T23:01:00.216Z,97833.88
2023-05-15T23:03:29.044Z,97838.88
2023-05-15T23:06:01.290Z,97839.81
2023-05-15T23:08:44.400Z,97843.50
2023-05-15T23:11:20.430Z,97841.06
2023-05-15T23:16:37.477Z,97842.94
2023-05-15T23:19:23.470Z,97850.47
2023-05-15T23:22:03.223Z,97831.22
2023-05-15T23:24:34.990Z,97826.72
2023-05-15T23:27:15.490Z,97821.03
2023-05-15T23:29:49.451Z,97820.31
2023-05-15T23:32:40.319Z,97829.09
2023-05-15T23:35:15.098Z,97824.38
2023-05-15T23:37:59.860Z,97827.25
2023-05-15T23:40:31.590Z,97833.72
2023-05-15T23:45:44.841Z,97830.66
2023-05-15T23:48:17.640Z,97834.13
2023-05-15T23:50:59.747Z,97832.34
2023-05-15T23:53:40.348Z,97827.84
2023-05-15T23:56:13.047Z,97820.94
2023-05-15T23:58:51.060Z,97827.78
